Aérodrome :
LOGIN :

S'inscrire | Disclaimer

   EN    FR    IT 

 










Légende :    VFR   VFR Marginal   IFR   IFR Intensif   IFR Très Intensif
Visi : 
Plafond : 
>= 8 km
>= 3000ft
5 à 8 km
1000 à 3000 ft
1500m à 5 km
500 à 1000 ft
800 à 1500m
200 à 500 ft
< 800m
< 200 ft
Symboles :   Orages  Brouillard  Fortes neiges  Fortes précipitations  Vent > 20 kt
SIGMETs :   Divers  Orages  Givrage  Turbulence  Onde Orograph.  Cendres Volcan.







- Altitude de l'aérodrome : 171 ft
- Code IATA : EGC
- Voir les cartes d'approche


LFBE - Bergerac

DERNIER METAR :
  • 230530Z AUTO 06003KT CAVOK 09/09 Q1017 TEMPO 1500 BCFG

METARs EXPIRÉS :
  • 230500Z AUTO 06002KT CAVOK 08/08 Q1017 TEMPO 1500 BCFG
  • 230430Z AUTO 06003KT CAVOK 07/07 Q1017 TEMPO 1500 BCFG
  • 230400Z AUTO 08002KT 4000 BR NSC 08/07 Q1017 TEMPO 1500 BCFG
  • 230330Z AUTO 08003KT CAVOK 08/08 Q1017 TEMPO 1500 BCFG
  • 230300Z AUTO 07003KT CAVOK 08/07 Q1017 TEMPO 1500 BCFG

TAF TAF LFBE
Valide du 23 à 06h jusqu'au 24 à 06h UTC


230500Z 2306/2406 03005KT CAVOK
PROB30
TEMPO 2306/2307 1500 BCFG
BECMG 2314/2316 30010KT
TEMPO 2320/2402 SHRA BKN060TCU
PROB30 2320/2324 -TSRA BKN050CB
PROB40 2402/2406 3000 RA BKN006
Pas de NOTAMs connus pour ce terrain.



MET'MAP, la Météo Aéronautique d'un coup d'oeil ! - Copyright ORBIFLY Décembre 2007 - Disclaimer

ORBIFLY MET'MAP TEAM :

Programmation & Développement : Alexandra Zaïnal
Conception & Développement : Baudouin d'Aumeries
Co-Programmation & Développement : Marc-Olivier Méhu
Soutien technique & logistique : Manuel Goepfert

Contact : metmap@orbifly.com




SOURCES & CREDITS :

   NOAA